PITTSFIELD MILLS DAM SUNCOOK RIVER PITTSFIELD, NH: From 08/05/2019 17:00 to 08/20/2019 01:00

Date PRECIPITATION INCREMENT [IN] WATER TEMPERATURE [F] AIR TEMPERATURE [F] POOL ELEVATION [FT] RESERVOIR RELEASE [CFS]
08/19/2019 19:00 -- -- -- -- 40.0
08/19/2019 18:00 0.00 72.7 84.0 474.64 39.3
08/19/2019 17:00 0.00 72.7 81.0 474.64 38.5
08/19/2019 16:00 0.00 72.9 88.0 474.64 38.8
08/19/2019 15:00 0.00 72.9 86.0 474.64 38.0
08/19/2019 14:00 0.00 72.5 84.0 474.64 37.5
08/19/2019 13:00 0.00 72.7 81.0 474.63 37.0
08/19/2019 12:00 0.00 72.5 79.0 474.63 35.8
08/19/2019 11:00 0.00 72.7 75.0 474.63 34.5
08/19/2019 10:00 0.00 72.7 71.0 474.62 33.5
08/19/2019 09:00 0.00 72.9 69.0 474.62 31.5
08/19/2019 08:00 0.00 72.9 68.0 474.61 30.0
08/19/2019 07:00 0.00 72.9 68.0 474.61 29.8
08/19/2019 06:00 0.00 73.0 68.0 474.61 29.0
08/19/2019 05:00 0.00 73.0 69.0 474.61 29.3
08/19/2019 04:00 0.00 73.2 69.0 474.61 29.3
08/19/2019 03:00 0.01 73.2 69.0 474.61 29.3
08/19/2019 02:00 0.06 72.9 69.0 474.61 28.8
08/19/2019 01:00 0.02 73.2 70.0 474.60 28.0
08/19/2019 00:00 0.00 73.2 72.0 474.60 27.8
08/18/2019 23:00 0.00 73.0 72.0 474.60 27.8
08/18/2019 22:00 0.00 72.9 73.0 474.60 27.5
08/18/2019 21:00 0.00 73.0 75.0 474.60 27.0
08/18/2019 20:00 0.00 72.9 84.0 474.60 27.3
08/18/2019 19:00 0.00 72.7 87.0 474.60 25.8
08/18/2019 18:00 0.00 72.7 87.0 474.60 25.5
08/18/2019 17:00 0.00 72.7 84.0 474.59 25.0
08/18/2019 16:00 0.00 72.7 83.0 474.59 24.3
08/18/2019 15:00 0.00 72.7 81.0 474.58 22.8
08/18/2019 14:00 0.00 72.7 81.0 474.58 21.8
08/18/2019 13:00 0.00 72.5 76.0 474.57 20.0
08/18/2019 12:00 0.00 72.5 71.0 474.57 19.3
08/18/2019 11:00 0.00 72.7 68.0 474.57 18.5
08/18/2019 10:00 0.00 72.5 67.0 474.57 18.0
08/18/2019 09:00 0.00 72.5 66.0 474.56 18.0
08/18/2019 08:00 0.00 72.5 65.0 474.56 17.5
08/18/2019 07:00 0.00 72.1 66.0 474.56 17.0
08/18/2019 06:00 0.00 72.1 66.0 474.56 16.5
08/18/2019 05:00 0.00 72.0 66.0 474.56 15.5
08/18/2019 04:00 0.00 72.1 66.0 474.55 15.0
08/18/2019 03:00 0.00 72.3 66.0 474.55 14.5
08/18/2019 02:00 0.00 72.5 66.0 474.55 14.8
08/18/2019 01:00 0.00 72.3 66.0 474.55 15.8
08/18/2019 00:00 0.51 73.0 67.0 474.56 16.0
08/17/2019 23:00 0.03 73.0 68.0 474.52 6.8
08/17/2019 22:00 0.00 73.4 69.0 474.51 6.8
08/17/2019 21:00 0.00 73.2 70.0 474.51 6.8
08/17/2019 20:00 0.00 73.2 72.0 474.51 6.8
08/17/2019 19:00 0.00 73.2 73.0 474.51 6.8
08/17/2019 18:00 0.00 73.0 74.0 474.51 6.3
08/17/2019 17:00 0.00 72.7 73.0 474.51 6.8
08/17/2019 16:00 0.00 72.7 72.0 474.51 7.0
08/17/2019 15:00 0.00 72.7 72.0 474.51 6.8
08/17/2019 14:00 0.00 72.5 72.0 474.51 7.0
08/17/2019 13:00 0.00 72.5 71.0 474.51 7.0
08/17/2019 12:00 0.00 72.5 69.0 474.51 7.0
08/17/2019 11:00 0.00 72.5 68.0 474.51 7.3
08/17/2019 10:00 0.00 72.7 67.0 474.51 7.0
08/17/2019 09:00 0.00 72.7 66.0 474.51 7.0
08/17/2019 08:00 0.00 72.7 65.0 474.51 7.0
08/17/2019 07:00 0.00 72.7 65.0 474.51 7.0
08/17/2019 06:00 0.00 72.7 66.0 474.52 7.3
08/17/2019 05:00 0.00 72.5 65.0 474.51 7.0
08/17/2019 04:00 0.00 72.5 65.0 474.52 7.3
08/17/2019 03:00 0.00 72.3 66.0 474.51 7.5
08/17/2019 02:00 0.00 72.1 66.0 474.51 7.3
08/17/2019 01:00 0.00 72.3 66.0 474.51 7.3
08/17/2019 00:00 0.00 72.5 66.0 474.51 7.5
08/16/2019 23:00 0.00 72.9 65.0 474.52 7.8
08/16/2019 22:00 0.00 73.0 67.0 474.52 7.5
08/16/2019 21:00 0.00 72.9 69.0 474.52 8.0
08/16/2019 20:00 0.00 72.9 73.0 474.51 7.8
08/16/2019 19:00 0.00 73.0 75.0 474.52 8.3
08/16/2019 18:00 0.00 72.7 79.0 474.52 8.0
08/16/2019 17:00 0.00 72.5 80.0 474.52 8.0
08/16/2019 16:00 0.00 72.7 80.0 474.52 8.3
08/16/2019 15:00 0.00 72.5 78.0 474.52 8.0
08/16/2019 14:00 0.00 72.7 77.0 474.52 8.3
08/16/2019 13:00 0.00 72.9 74.0 474.52 8.5
08/16/2019 12:00 0.00 72.5 74.0 474.52 8.8
08/16/2019 11:00 0.00 72.5 70.0 474.52 8.5
08/16/2019 10:00 0.00 72.5 67.0 474.52 8.8
08/16/2019 09:00 0.00 72.3 65.0 474.52 9.0
08/16/2019 08:00 0.00 72.3 64.0 474.52 9.0
08/16/2019 07:00 0.00 72.5 64.0 474.52 9.3
08/16/2019 06:00 0.00 72.5 65.0 474.52 9.0
08/16/2019 05:00 0.00 72.3 64.0 474.52 9.0
08/16/2019 04:00 0.00 72.3 65.0 474.52 9.0
08/16/2019 03:00 0.00 72.3 65.0 474.52 9.0
08/16/2019 02:00 0.00 72.1 65.0 474.53 9.5
08/16/2019 01:00 0.00 72.1 65.0 474.53 9.3
08/16/2019 00:00 0.00 72.1 65.0 474.52 9.5
08/15/2019 23:00 0.00 72.3 67.0 474.53 10.0
08/15/2019 22:00 0.00 72.3 68.0 474.53 10.0
08/15/2019 21:00 0.00 72.3 71.0 474.53 10.0
08/15/2019 20:00 0.00 72.3 73.0 474.53 10.0
08/15/2019 19:00 0.00 72.0 76.0 474.53 10.3
08/15/2019 18:00 0.00 72.3 78.0 474.53 10.3
08/15/2019 17:00 0.00 72.1 77.0 474.53 10.0
08/15/2019 16:00 0.00 72.3 77.0 474.53 10.5
08/15/2019 15:00 0.00 72.7 76.0 474.53 11.3
08/15/2019 14:00 0.00 72.7 75.0 474.53 11.0
08/15/2019 13:00 0.00 72.3 74.0 474.54 11.5
08/15/2019 12:00 0.00 72.5 71.0 474.54 12.0
08/15/2019 11:00 0.00 72.5 68.0 474.54 12.0
08/15/2019 10:00 0.00 72.5 64.0 474.54 12.0
08/15/2019 09:00 0.00 72.5 61.0 474.54 12.0
08/15/2019 08:00 0.00 72.5 57.0 474.54 12.0
08/15/2019 07:00 0.00 72.5 57.0 474.54 12.0
08/15/2019 06:00 0.00 72.5 57.0 474.54 12.0
08/15/2019 05:00 0.00 72.5 58.0 474.54 12.0
08/15/2019 04:00 0.00 72.5 59.0 474.54 12.0
08/15/2019 03:00 0.00 72.5 60.0 474.54 12.0
08/15/2019 02:00 0.00 72.3 61.0 474.54 12.0
08/15/2019 01:00 0.00 72.3 62.0 474.54 12.0
08/15/2019 00:00 0.00 72.3 64.0 474.54 12.0
08/14/2019 23:00 0.00 72.1 67.0 474.54 12.0
08/14/2019 22:00 0.00 72.3 69.0 474.54 12.3
08/14/2019 21:00 0.00 72.3 72.0 474.54 12.0
08/14/2019 20:00 0.00 72.1 81.0 474.54 12.0
08/14/2019 19:00 0.00 72.0 80.0 474.54 12.0
08/14/2019 18:00 0.00 72.3 78.0 474.54 12.3
08/14/2019 17:00 0.00 72.3 79.0 474.54 12.0
08/14/2019 16:00 0.00 72.3 76.0 474.54 12.0
08/14/2019 15:00 0.00 72.0 76.0 474.54 12.0
08/14/2019 14:00 0.00 72.5 75.0 474.54 12.3
08/14/2019 13:00 0.00 72.5 73.0 474.54 12.0
08/14/2019 12:00 0.00 72.3 72.0 474.54 12.0
08/14/2019 11:00 0.00 72.1 69.0 474.54 12.0
08/14/2019 10:00 0.00 72.1 66.0 474.54 12.0
08/14/2019 09:00 0.00 72.3 62.0 474.54 12.0
08/14/2019 08:00 0.00 72.3 59.0 474.54 12.0
08/14/2019 07:00 0.00 72.3 59.0 474.53 11.3
08/14/2019 06:00 0.00 72.3 61.0 474.53 11.0
08/14/2019 05:00 0.00 72.3 62.0 474.53 11.0
08/14/2019 04:00 0.00 72.3 63.0 474.53 10.5
08/14/2019 03:00 0.00 72.1 65.0 474.53 10.3
08/14/2019 02:00 0.00 72.3 67.0 474.53 10.8
08/14/2019 01:00 0.00 72.5 67.0 474.53 10.5
08/14/2019 00:00 0.00 72.3 68.0 474.53 10.8
08/13/2019 23:00 0.00 72.3 69.0 474.53 10.8
08/13/2019 22:00 0.00 72.3 70.0 474.54 12.3
08/13/2019 21:00 0.00 72.1 71.0 474.54 14.3
08/13/2019 20:00 0.37 72.3 71.0 474.55 16.3
08/13/2019 19:00 0.04 72.1 73.0 474.52 6.3
08/13/2019 18:00 0.00 72.0 79.0 474.50 4.3
08/13/2019 17:00 0.00 72.0 75.0 474.50 3.5
08/13/2019 16:00 0.00 72.0 81.0 474.49 3.8
08/13/2019 15:00 0.00 72.0 80.0 474.50 4.0
08/13/2019 14:00 0.00 72.1 78.0 474.50 4.0
08/13/2019 13:00 0.00 72.1 78.0 474.50 4.0
08/13/2019 12:00 0.00 72.0 79.0 474.50 4.0
08/13/2019 11:00 0.00 72.1 75.0 474.50 4.0
08/13/2019 10:00 0.00 72.1 71.0 474.50 4.0
08/13/2019 09:00 0.00 72.1 67.0 474.50 4.0
08/13/2019 08:00 0.00 72.1 66.0 474.50 4.0
08/13/2019 07:00 0.00 72.3 65.0 474.50 4.0
08/13/2019 06:00 0.00 72.3 64.0 474.50 4.0
08/13/2019 05:00 0.00 72.5 64.0 474.50 4.3
08/13/2019 04:00 0.00 72.7 64.0 474.50 4.0
08/13/2019 03:00 0.00 72.5 66.0 474.50 4.8
08/13/2019 02:00 0.00 72.7 67.0 474.50 4.3
08/13/2019 01:00 0.00 72.7 68.0 474.50 4.8
08/13/2019 00:00 0.00 72.7 68.0 474.50 4.5
08/12/2019 23:00 0.00 72.5 71.0 474.50 4.3
08/12/2019 22:00 0.00 72.5 71.0 474.50 4.3
08/12/2019 21:00 0.00 72.5 76.0 474.50 4.8
08/12/2019 20:00 0.00 72.5 81.0 474.50 5.0
08/12/2019 19:00 0.00 72.5 83.0 474.50 4.8
08/12/2019 18:00 0.00 72.5 83.0 474.50 5.0
08/12/2019 17:00 0.00 72.5 81.0 474.50 5.0
08/12/2019 16:00 0.00 72.5 82.0 474.50 5.0
08/12/2019 15:00 0.00 72.9 81.0 474.51 5.8
08/12/2019 14:00 0.00 72.5 81.0 474.51 5.8
08/12/2019 13:00 0.00 72.5 78.0 474.50 5.5
08/12/2019 12:00 0.00 72.9 75.0 474.51 6.0
08/12/2019 11:00 0.00 72.9 71.0 474.51 6.0
08/12/2019 10:00 0.00 73.0 66.0 474.51 6.0
08/12/2019 09:00 0.00 73.0 61.0 474.51 6.0
08/12/2019 08:00 0.00 73.0 53.0 474.51 6.0
08/12/2019 07:00 0.00 73.2 53.0 474.51 6.0
08/12/2019 06:00 0.00 73.4 54.0 474.51 6.0
08/12/2019 05:00 0.00 73.6 54.0 474.51 6.0
08/12/2019 04:00 0.00 73.8 55.0 474.51 6.0
08/12/2019 03:00 0.00 73.8 56.0 474.51 6.0
08/12/2019 02:00 0.00 73.9 56.0 474.51 6.0
08/12/2019 01:00 0.00 73.9 57.0 474.51 6.0
08/12/2019 00:00 0.00 73.8 59.0 474.51 6.0
08/11/2019 23:00 0.00 73.8 61.0 474.51 6.0
08/11/2019 22:00 0.00 73.8 64.0 474.51 6.0
08/11/2019 21:00 0.00 73.8 69.0 474.51 6.0
08/11/2019 20:00 0.00 73.6 74.0 474.51 6.0
08/11/2019 19:00 0.00 73.8 74.0 474.51 6.0
08/11/2019 18:00 0.00 73.6 75.0 474.51 6.8
08/11/2019 17:00 0.00 73.6 76.0 474.51 6.3
08/11/2019 16:00 0.00 73.8 74.0 474.52 7.3
08/11/2019 15:00 0.00 73.8 72.0 474.51 7.3
08/11/2019 14:00 0.00 73.8 70.0 474.52 8.0
08/11/2019 13:00 0.00 73.8 70.0 474.51 7.5
08/11/2019 12:00 0.00 73.8 67.0 474.52 8.3
08/11/2019 11:00 0.00 73.8 66.0 474.52 8.5
08/11/2019 10:00 0.00 73.8 64.0 474.52 8.0
08/11/2019 09:00 0.00 73.9 58.0 474.52 8.8
08/11/2019 08:00 0.00 74.1 50.0 474.52 9.0
08/11/2019 07:00 0.00 74.3 48.0 474.52 9.0
08/11/2019 06:00 0.00 74.5 49.0 474.52 9.3
08/11/2019 05:00 0.00 74.7 51.0 474.52 9.5
08/11/2019 04:00 0.00 74.7 52.0 474.53 9.5
08/11/2019 03:00 0.00 74.5 53.0 474.52 9.0
08/11/2019 02:00 0.00 74.5 53.0 474.52 9.0
08/11/2019 01:00 0.00 74.5 55.0 474.52 9.5
08/11/2019 00:00 0.00 74.5 57.0 474.52 9.0
08/10/2019 23:00 0.00 74.5 61.0 474.53 9.8
08/10/2019 22:00 0.00 74.3 63.0 474.53 9.8
08/10/2019 21:00 0.00 74.3 65.0 474.53 9.8
08/10/2019 20:00 0.00 73.8 69.0 474.52 9.3
08/10/2019 19:00 0.00 74.3 71.0 474.52 9.3
08/10/2019 18:00 0.00 74.1 72.0 474.51 9.0
08/10/2019 17:00 0.00 73.9 72.0 474.52 11.5
08/10/2019 16:00 0.00 73.6 70.0 474.53 10.5
08/10/2019 15:00 0.00 73.6 66.0 474.53 11.3
08/10/2019 14:00 0.00 73.9 72.0 474.55 11.5
08/10/2019 13:00 0.00 73.8 71.0 474.53 12.0
08/10/2019 12:00 0.00 73.6 69.0 474.54 12.3
08/10/2019 11:00 0.00 73.6 68.0 474.54 12.8
08/10/2019 10:00 0.00 73.9 66.0 474.54 12.8
08/10/2019 09:00 0.00 73.9 61.0 474.54 13.0
08/10/2019 08:00 0.00 73.9 54.0 474.55 13.5
08/10/2019 07:00 0.00 74.1 53.0 474.55 14.0
08/10/2019 06:00 0.00 74.3 54.0 474.55 14.3
08/10/2019 05:00 0.00 74.1 55.0 474.55 15.0
08/10/2019 04:00 0.00 74.3 56.0 474.55 15.0
08/10/2019 03:00 0.00 74.5 57.0 474.55 15.0
08/10/2019 02:00 0.00 74.5 58.0 474.55 15.0
08/10/2019 01:00 0.00 74.5 59.0 474.55 15.0
08/10/2019 00:00 0.00 74.3 60.0 474.55 15.0
08/09/2019 23:00 0.00 74.3 62.0 474.55 15.0
08/09/2019 22:00 0.00 73.9 65.0 474.55 15.5
08/09/2019 21:00 0.00 74.1 70.0 474.56 15.5
08/09/2019 20:00 0.00 73.8 73.0 474.55 15.8
08/09/2019 19:00 0.00 73.8 80.0 474.56 15.8
08/09/2019 18:00 0.00 73.8 81.0 474.56 16.5
08/09/2019 17:00 0.00 73.8 80.0 474.56 17.5
08/09/2019 16:00 0.00 73.8 79.0 474.55 16.3
08/09/2019 15:00 0.00 73.8 78.0 474.56 17.8
08/09/2019 14:00 0.00 73.4 77.0 474.56 17.8
08/09/2019 13:00 0.00 73.9 76.0 474.57 17.5
08/09/2019 12:00 0.00 73.6 74.0 474.57 18.0
08/09/2019 11:00 0.00 73.6 72.0 474.57 18.0
08/09/2019 10:00 0.00 73.8 69.0 474.57 18.0
08/09/2019 09:00 0.00 73.8 65.0 474.57 18.3
08/09/2019 08:00 0.00 73.9 61.0 474.57 18.3
08/09/2019 07:00 0.00 73.8 59.0 474.57 18.0
08/09/2019 06:00 0.00 73.9 61.0 474.57 18.0
08/09/2019 05:00 0.00 73.9 61.0 474.56 18.0
08/09/2019 04:00 0.00 73.9 62.0 474.57 18.0
08/09/2019 03:00 0.00 73.9 63.0 474.56 17.8
08/09/2019 02:00 0.00 74.1 65.0 474.56 17.3
08/09/2019 01:00 0.00 73.9 65.0 474.56 16.8
08/09/2019 00:00 0.00 73.9 67.0 474.56 15.8
08/08/2019 23:00 0.00 73.8 67.0 474.55 15.0
08/08/2019 22:00 0.00 73.8 67.0 474.55 15.0
08/08/2019 21:00 0.01 73.6 69.0 474.55 14.8
08/08/2019 20:00 0.00 73.8 80.0 474.55 15.5
08/08/2019 19:00 0.00 73.4 84.0 474.55 15.0
08/08/2019 18:00 0.00 73.4 84.0 474.55 14.8
08/08/2019 17:00 0.00 73.2 83.0 474.56 16.3
08/08/2019 16:00 0.00 73.6 81.0 474.55 15.5
08/08/2019 15:00 0.00 73.4 79.0 474.55 16.0
08/08/2019 14:00 0.00 73.4 77.0 474.55 16.3
08/08/2019 13:00 0.01 73.4 74.0 474.56 16.0
08/08/2019 12:00 0.00 73.6 75.0 474.56 16.0
08/08/2019 11:00 0.00 73.4 72.0 474.56 15.5
08/08/2019 10:00 0.00 73.6 69.0 474.55 15.0
08/08/2019 09:00 0.00 73.6 68.0 474.56 15.8
08/08/2019 08:00 0.00 73.8 67.0 474.55 15.0
08/08/2019 07:00 0.00 73.8 67.0 474.55 15.0
08/08/2019 06:00 0.00 73.8 67.0 474.55 15.0
08/08/2019 05:00 0.01 73.8 67.0 474.55 15.0
08/08/2019 04:00 0.04 73.8 67.0 474.55 15.0
08/08/2019 03:00 0.05 73.8 67.0 474.55 14.3
08/08/2019 02:00 0.02 73.6 67.0 474.55 14.5
08/08/2019 01:00 0.10 73.8 67.0 474.55 13.3
08/08/2019 00:00 0.05 73.9 68.0 474.54 11.8
08/07/2019 23:00 0.04 73.8 69.0 474.53 10.3
08/07/2019 22:00 0.00 73.9 70.0 474.53 10.0
08/07/2019 21:00 0.01 73.8 71.0 474.53 10.8
08/07/2019 20:00 0.04 73.8 71.0 474.54 12.0
08/07/2019 19:00 0.35 73.8 70.0 474.54 8.0
08/07/2019 18:00 0.03 73.6 71.0 474.50 4.8
08/07/2019 17:00 0.00 73.6 83.0 474.50 4.0
08/07/2019 16:00 0.00 73.6 83.0 474.50 4.5
08/07/2019 15:00 0.00 73.6 82.0 474.50 5.0
08/07/2019 14:00 0.00 73.6 80.0 474.50 5.3
08/07/2019 13:00 0.00 73.4 78.0 474.50 4.8
08/07/2019 12:00 0.00 73.8 74.0 474.50 5.0
08/07/2019 11:00 0.00 73.8 72.0 474.50 5.0
08/07/2019 10:00 0.00 73.8 68.0 474.50 5.0
08/07/2019 09:00 0.00 73.8 66.0 474.50 5.0
08/07/2019 08:00 0.00 73.8 64.0 474.50 5.0
08/07/2019 07:00 0.00 73.8 64.0 474.50 5.0
08/07/2019 06:00 0.00 73.8 64.0 474.50 5.0
08/07/2019 05:00 0.00 73.6 65.0 474.50 5.0
08/07/2019 04:00 0.00 73.6 65.0 474.50 5.0
08/07/2019 03:00 0.00 73.6 66.0 474.50 5.0
08/07/2019 02:00 0.00 73.6 66.0 474.50 5.0
08/07/2019 01:00 0.00 73.8 67.0 474.50 5.0
08/07/2019 00:00 0.00 74.1 68.0 474.50 5.0
08/06/2019 23:00 0.00 73.9 69.0 474.50 5.0
08/06/2019 22:00 0.00 73.8 71.0 474.50 5.3
08/06/2019 21:00 0.00 74.1 74.0 474.50 5.8
08/06/2019 20:00 0.00 73.9 78.0 474.50 5.5
08/06/2019 19:00 0.00 73.9 78.0 474.50 5.8
08/06/2019 18:00 0.00 74.1 79.0 474.51 5.5
08/06/2019 17:00 0.00 73.8 80.0 474.50 6.0
08/06/2019 16:00 0.00 74.1 82.0 474.51 6.0
08/06/2019 15:00 0.00 74.1 83.0 474.51 6.0
08/06/2019 14:00 0.00 73.9 81.0 474.51 6.3
08/06/2019 13:00 0.00 74.1 80.0 474.51 6.0
08/06/2019 12:00 0.00 74.1 77.0 474.51 6.5
08/06/2019 11:00 0.00 74.1 73.0 474.51 6.8
08/06/2019 10:00 0.00 74.1 67.0 474.51 7.0
08/06/2019 09:00 0.00 74.3 58.0 474.51 7.0
08/06/2019 08:00 0.00 74.3 53.0 474.51 7.0
08/06/2019 07:00 0.00 74.1 52.0 474.52 7.5
08/06/2019 06:00 0.00 73.9 53.0 474.52 7.8
08/06/2019 05:00 0.00 74.1 55.0 474.52 7.8
08/06/2019 04:00 0.00 74.3 55.0 474.52 8.0
08/06/2019 03:00 0.00 74.3 57.0 474.52 7.8
08/06/2019 02:00 0.00 74.5 58.0 474.52 8.0
08/06/2019 01:00 0.00 74.5 59.0 474.52 8.0
08/06/2019 00:00 0.00 74.3 61.0 474.52 8.0
08/05/2019 23:00 0.00 74.5 62.0 474.52 8.0
08/05/2019 22:00 0.00 74.5 66.0 474.52 8.0
08/05/2019 21:00 0.00 74.3 73.0 474.52 8.0
08/05/2019 20:00 0.00 74.3 82.0 474.52 8.0
08/05/2019 19:00 0.00 74.1 81.0 474.52 8.3
08/05/2019 18:00 -- -- -- -- --
08/05/2019 17:00 -- -- -- -- --